createdAt,value
2018-01-30T00:00:41.102Z,8.00
2018-01-30T00:03:08.682Z,8.00
2018-01-30T00:05:44.686Z,7.90
2018-01-30T00:08:12.291Z,7.90
2018-01-30T00:10:40.646Z,7.90
2018-01-30T00:13:08.227Z,7.90
2018-01-30T00:15:36.576Z,7.80
2018-01-30T00:18:04.242Z,7.90
2018-01-30T00:20:31.812Z,7.80
2018-01-30T00:22:59.397Z,7.80
2018-01-30T00:25:45.029Z,7.80
2018-01-30T00:28:12.626Z,7.80
2018-01-30T00:30:40.357Z,7.80
2018-01-30T00:33:07.931Z,7.80
2018-01-30T00:35:35.506Z,7.80
2018-01-30T00:38:03.114Z,7.80
2018-01-30T00:40:30.699Z,7.80
2018-01-30T00:42:58.297Z,7.80
2018-01-30T00:45:25.926Z,7.80
2018-01-30T00:47:53.521Z,7.80
2018-01-30T00:50:21.099Z,7.80
2018-01-30T00:52:49.465Z,7.70
2018-01-30T00:55:17.059Z,7.70
2018-01-30T00:57:44.642Z,7.70
2018-01-30T01:00:12.264Z,7.70
2018-01-30T01:02:40.609Z,7.70
2018-01-30T01:05:11.578Z,7.70
2018-01-30T01:07:40.007Z,7.70
2018-01-30T01:10:07.601Z,7.70
2018-01-30T01:12:35.942Z,7.70
2018-01-30T01:15:03.543Z,7.70
2018-01-30T01:17:31.138Z,7.70
2018-01-30T01:19:58.727Z,7.70
2018-01-30T01:22:26.296Z,7.70
2018-01-30T01:24:53.890Z,7.60
2018-01-30T01:27:29.794Z,7.60
2018-01-30T01:29:57.382Z,7.60
2018-01-30T01:32:24.961Z,7.60
2018-01-30T01:34:52.593Z,7.60
2018-01-30T01:37:20.203Z,7.60
2018-01-30T01:39:48.563Z,7.50
2018-01-30T01:42:16.179Z,7.50
2018-01-30T01:44:43.769Z,7.50
2018-01-30T01:47:11.344Z,7.50
2018-01-30T01:49:38.955Z,7.50
2018-01-30T01:52:06.544Z,7.50
2018-01-30T01:54:34.125Z,7.50
2018-01-30T01:57:03.653Z,7.40
2018-01-30T01:59:32.011Z,7.20
2018-01-30T02:01:59.603Z,7.20
2018-01-30T02:04:27.972Z,7.20
2018-01-30T02:06:56.316Z,7.30
2018-01-30T02:09:23.888Z,7.30
2018-01-30T02:11:51.525Z,7.40
2018-01-30T02:14:19.110Z,7.40
2018-01-30T02:16:46.710Z,7.40
2018-01-30T02:19:18.857Z,7.50
2018-01-30T02:21:47.243Z,7.50
2018-01-30T02:24:15.633Z,7.50
2018-01-30T02:26:43.976Z,7.50
2018-01-30T02:29:11.567Z,7.50
2018-01-30T02:31:39.928Z,7.50
2018-01-30T02:34:07.555Z,7.50
2018-01-30T02:36:35.165Z,7.50
2018-01-30T02:39:03.557Z,7.50
2018-01-30T02:41:31.162Z,7.50
2018-01-30T02:43:58.754Z,7.50
2018-01-30T02:46:26.350Z,7.50
2018-01-30T02:48:53.966Z,7.40
2018-01-30T02:51:21.563Z,7.40
2018-01-30T02:53:49.914Z,7.40
2018-01-30T02:56:17.505Z,7.30
2018-01-30T02:58:45.105Z,7.40
2018-01-30T03:01:12.741Z,7.40
2018-01-30T03:03:40.334Z,7.40
2018-01-30T03:06:07.901Z,7.40
2018-01-30T03:08:35.473Z,7.50
2018-01-30T03:11:03.053Z,7.50
2018-01-30T03:13:31.430Z,7.70
2018-01-30T03:15:59.791Z,7.70
2018-01-30T03:18:27.382Z,7.70
2018-01-30T03:20:55.738Z,7.70
2018-01-30T03:23:23.338Z,7.70
2018-01-30T03:25:50.960Z,7.60
2018-01-30T03:28:18.536Z,7.60
2018-01-30T03:30:46.907Z,7.70
2018-01-30T03:33:14.477Z,7.60
2018-01-30T03:35:42.846Z,7.70
2018-01-30T03:38:10.566Z,7.70
2018-01-30T03:40:38.141Z,7.70
2018-01-30T03:43:05.732Z,7.70
2018-01-30T03:45:33.343Z,7.70
2018-01-30T03:48:00.944Z,7.70
2018-01-30T03:50:28.573Z,7.70
2018-01-30T03:52:56.175Z,7.70
2018-01-30T03:55:23.771Z,7.60
2018-01-30T03:57:51.363Z,7.60
2018-01-30T04:00:18.948Z,7.60
2018-01-30T04:02:46.541Z,7.60
2018-01-30T04:05:14.914Z,7.60
2018-01-30T04:07:43.270Z,7.50
2018-01-30T04:10:10.879Z,7.50
2018-01-30T04:12:38.469Z,7.40
2018-01-30T04:15:06.052Z,7.40
2018-01-30T04:17:33.631Z,7.20
2018-01-30T04:20:01.994Z,7.10
2018-01-30T04:22:29.616Z,7.10
2018-01-30T04:24:57.205Z,7.00
2018-01-30T04:27:24.818Z,7.00
2018-01-30T04:29:52.388Z,7.10
2018-01-30T04:32:19.969Z,7.10
2018-01-30T04:34:47.568Z,7.10
2018-01-30T04:37:15.151Z,7.10
2018-01-30T04:39:43.510Z,7.10
2018-01-30T04:42:11.085Z,7.10
2018-01-30T04:44:39.428Z,7.10
2018-01-30T04:47:07.029Z,7.10
2018-01-30T04:49:34.625Z,7.10
2018-01-30T04:52:02.245Z,7.20
2018-01-30T04:54:30.600Z,7.20
2018-01-30T04:56:58.177Z,7.10
2018-01-30T04:59:26.558Z,7.20
2018-01-30T05:01:54.909Z,7.20
2018-01-30T05:04:22.484Z,7.20
2018-01-30T05:06:50.101Z,7.20
2018-01-30T05:09:17.704Z,7.20
2018-01-30T05:11:45.294Z,7.10
2018-01-30T05:14:12.916Z,7.10
2018-01-30T05:16:40.501Z,7.10
2018-01-30T05:19:08.862Z,7.00
2018-01-30T05:21:36.469Z,7.00
2018-01-30T05:24:04.066Z,6.90
2018-01-30T05:26:31.663Z,6.90
2018-01-30T05:29:03.537Z,6.80
2018-01-30T05:31:31.885Z,6.70
2018-01-30T05:33:59.502Z,6.70
2018-01-30T05:36:27.076Z,6.70
2018-01-30T05:38:54.655Z,6.60
2018-01-30T05:41:36.114Z,6.60
2018-01-30T05:44:03.710Z,6.60
2018-01-30T05:46:31.307Z,6.50
2018-01-30T05:49:11.205Z,6.50
2018-01-30T05:51:38.801Z,6.40
2018-01-30T05:54:07.177Z,6.40
2018-01-30T05:56:34.766Z,6.40
2018-01-30T05:59:02.359Z,6.40
2018-01-30T06:01:29.952Z,6.50
2018-01-30T06:03:57.547Z,6.40
2018-01-30T06:06:25.930Z,6.40
2018-01-30T06:08:54.769Z,6.40
2018-01-30T06:11:22.433Z,6.40
2018-01-30T06:13:50.008Z,6.40
2018-01-30T06:16:17.580Z,6.40
2018-01-30T06:18:52.034Z,6.40
2018-01-30T06:21:19.630Z,6.40
2018-01-30T06:23:47.251Z,6.40
2018-01-30T06:26:14.862Z,6.40
2018-01-30T06:28:42.433Z,6.40
2018-01-30T06:31:10.042Z,6.40
2018-01-30T06:33:37.624Z,6.40
2018-01-30T06:36:05.205Z,6.30
2018-01-30T06:38:32.841Z,6.20
2018-01-30T06:41:00.431Z,6.10
2018-01-30T06:43:28.834Z,6.20
2018-01-30T06:45:57.248Z,6.20
2018-01-30T06:48:28.369Z,6.20
2018-01-30T06:50:56.798Z,6.10
2018-01-30T06:53:24.455Z,6.10
2018-01-30T06:55:52.061Z,6.00
2018-01-30T06:58:20.410Z,6.00
2018-01-30T07:00:48.039Z,5.90
2018-01-30T07:03:15.624Z,6.00
2018-01-30T07:05:43.216Z,6.00
2018-01-30T07:08:10.825Z,6.00
2018-01-30T07:10:38.424Z,5.90
2018-01-30T07:13:06.062Z,5.90
2018-01-30T07:15:33.657Z,5.90
2018-01-30T07:18:01.281Z,5.90
2018-01-30T07:20:43.850Z,5.90
2018-01-30T07:23:12.230Z,5.90
2018-01-30T07:25:40.672Z,5.90
2018-01-30T07:28:08.276Z,5.90
2018-01-30T07:30:35.890Z,5.90
2018-01-30T07:33:04.256Z,5.90
2018-01-30T07:35:31.844Z,5.90
2018-01-30T07:41:03.201Z,5.90
2018-01-30T07:43:30.829Z,5.90
2018-01-30T07:45:58.424Z,5.90
2018-01-30T07:48:26.023Z,5.90
2018-01-30T07:50:54.382Z,5.90
2018-01-30T07:53:21.979Z,5.90
2018-01-30T07:55:49.605Z,6.00
2018-01-30T07:58:17.210Z,6.00
2018-01-30T08:00:44.797Z,6.00
2018-01-30T08:03:12.380Z,5.90
2018-01-30T08:05:39.974Z,5.90
2018-01-30T08:08:08.393Z,5.90
2018-01-30T08:10:35.990Z,5.90
2018-01-30T08:13:03.585Z,5.90
2018-01-30T08:15:31.183Z,5.90
2018-01-30T08:17:58.794Z,5.90
2018-01-30T08:20:27.217Z,5.90
2018-01-30T08:22:54.805Z,5.90
2018-01-30T08:25:22.372Z,5.90
2018-01-30T08:27:49.973Z,5.90
2018-01-30T08:30:18.490Z,5.90
2018-01-30T08:32:46.996Z,5.90
2018-01-30T08:35:14.617Z,5.90
2018-01-30T08:37:42.213Z,5.80
2018-01-30T08:40:09.797Z,5.80
2018-01-30T08:42:37.400Z,5.80
2018-01-30T08:45:05.023Z,5.80
2018-01-30T08:47:33.376Z,5.80
2018-01-30T08:50:00.967Z,5.70
2018-01-30T08:52:28.558Z,5.80
2018-01-30T08:54:56.155Z,5.90
2018-01-30T08:57:23.792Z,5.90
2018-01-30T08:59:51.394Z,5.90
2018-01-30T09:02:19.037Z,6.00
2018-01-30T09:04:47.621Z,6.10
2018-01-30T09:07:15.210Z,6.20
2018-01-30T09:09:43.641Z,6.20
2018-01-30T09:12:11.216Z,6.20
2018-01-30T09:14:38.825Z,6.30
2018-01-30T09:17:07.198Z,6.40
2018-01-30T09:19:35.569Z,6.60
2018-01-30T09:22:03.206Z,6.60
2018-01-30T09:24:30.830Z,6.70
2018-01-30T09:26:58.447Z,6.70
2018-01-30T09:29:26.027Z,6.80
2018-01-30T09:31:53.634Z,6.70
2018-01-30T09:34:21.259Z,6.70
2018-01-30T09:36:49.621Z,6.60
2018-01-30T09:39:18.054Z,6.60
2018-01-30T09:41:45.650Z,6.60
2018-01-30T09:44:13.267Z,6.50
2018-01-30T09:46:40.884Z,6.50
2018-01-30T09:49:08.478Z,6.60
2018-01-30T09:51:41.685Z,6.70
2018-01-30T09:54:09.252Z,6.80
2018-01-30T09:56:36.868Z,6.90
2018-01-30T09:59:05.230Z,7.30
2018-01-30T10:01:32.828Z,7.30
2018-01-30T10:04:00.482Z,7.40
2018-01-30T10:06:28.826Z,7.50
2018-01-30T10:08:56.403Z,7.50
2018-01-30T10:11:24.753Z,7.50
2018-01-30T10:13:52.346Z,7.50
2018-01-30T10:16:20.735Z,7.40
2018-01-30T10:18:49.095Z,7.40
2018-01-30T10:21:16.694Z,7.40
2018-01-30T10:23:44.288Z,7.30
2018-01-30T10:26:11.868Z,7.30
2018-01-30T10:28:39.490Z,7.20
2018-01-30T10:31:07.069Z,7.30
2018-01-30T10:33:34.666Z,7.50
2018-01-30T10:36:03.052Z,7.80
2018-01-30T10:38:31.397Z,7.90
2018-01-30T10:40:59.016Z,7.90
2018-01-30T10:43:26.610Z,7.90
2018-01-30T10:45:54.216Z,7.90
2018-01-30T10:48:22.586Z,7.70
2018-01-30T10:50:50.180Z,7.70
2018-01-30T10:53:17.788Z,7.80
2018-01-30T10:55:45.369Z,8.00
2018-01-30T10:58:12.977Z,8.10
2018-01-30T11:00:40.583Z,8.30
2018-01-30T11:03:08.246Z,8.40
2018-01-30T11:05:35.879Z,8.40
2018-01-30T11:08:27.149Z,8.30
2018-01-30T11:10:55.532Z,8.20
2018-01-30T11:13:23.886Z,8.20
2018-01-30T11:15:51.474Z,8.20
2018-01-30T11:18:19.838Z,8.20
2018-01-30T11:20:48.233Z,8.30
2018-01-30T11:23:15.855Z,8.30
2018-01-30T11:25:43.486Z,8.30
2018-01-30T11:28:11.118Z,8.30
2018-01-30T11:30:39.478Z,8.40
2018-01-30T11:33:07.877Z,8.50
2018-01-30T11:35:36.268Z,8.50
2018-01-30T11:38:03.869Z,8.50
2018-01-30T11:40:31.481Z,8.70
2018-01-30T11:42:59.092Z,8.80
2018-01-30T11:45:26.989Z,8.80
2018-01-30T11:47:54.606Z,8.70
2018-01-30T11:50:22.202Z,8.80
2018-01-30T11:52:49.786Z,9.00
2018-01-30T11:55:18.157Z,9.10
2018-01-30T11:57:46.524Z,9.10
2018-01-30T12:00:14.157Z,9.00
2018-01-30T12:02:41.739Z,9.00
2018-01-30T12:05:09.330Z,9.00
2018-01-30T12:07:37.668Z,8.80
2018-01-30T12:10:05.248Z,8.80
2018-01-30T12:12:32.871Z,8.80
2018-01-30T12:15:00.458Z,8.90
2018-01-30T12:17:28.054Z,8.80
2018-01-30T12:19:56.412Z,8.70
2018-01-30T12:22:27.968Z,8.70
2018-01-30T12:25:03.410Z,8.70
2018-01-30T12:27:31.025Z,8.70
2018-01-30T12:29:58.624Z,8.60
2018-01-30T12:32:26.242Z,8.50
2018-01-30T12:34:54.853Z,8.50
2018-01-30T12:37:23.429Z,8.60
2018-01-30T12:39:52.707Z,8.60
2018-01-30T12:42:20.312Z,8.50
2018-01-30T12:44:48.726Z,8.60
2018-01-30T12:47:17.095Z,8.60
2018-01-30T12:49:45.478Z,8.60
2018-01-30T12:52:13.855Z,8.50
2018-01-30T12:54:42.206Z,8.50
2018-01-30T12:57:09.811Z,8.50
2018-01-30T12:59:37.412Z,8.50
2018-01-30T13:02:05.044Z,8.50
2018-01-30T13:04:32.637Z,8.50
2018-01-30T13:07:00.226Z,8.50
2018-01-30T13:09:27.847Z,8.50
2018-01-30T13:11:55.453Z,8.50
2018-01-30T13:14:23.074Z,8.50
2018-01-30T13:16:50.656Z,8.50
2018-01-30T13:19:18.259Z,8.50
2018-01-30T13:21:45.856Z,8.60
2018-01-30T13:24:13.455Z,8.70
2018-01-30T13:26:41.079Z,8.80
2018-01-30T13:29:08.670Z,8.90
2018-01-30T13:31:36.263Z,8.70
2018-01-30T13:34:04.631Z,8.60
2018-01-30T13:36:32.994Z,8.60
2018-01-30T13:39:00.628Z,8.60
2018-01-30T13:41:28.244Z,8.60
2018-01-30T13:43:56.596Z,8.50
2018-01-30T13:46:24.199Z,8.60
2018-01-30T13:48:51.808Z,8.50
2018-01-30T13:51:19.425Z,8.40
2018-01-30T13:53:47.028Z,8.40
2018-01-30T13:56:14.623Z,8.30
2018-01-30T13:58:42.977Z,8.20
2018-01-30T14:01:10.591Z,8.10
2018-01-30T14:03:38.224Z,8.10
2018-01-30T14:06:08.519Z,8.20
2018-01-30T14:08:36.100Z,8.20
2018-01-30T14:11:04.448Z,8.30
2018-01-30T14:13:49.649Z,8.30
2018-01-30T14:16:17.649Z,8.40
2018-01-30T14:18:45.236Z,8.50
2018-01-30T14:21:12.817Z,8.50
2018-01-30T14:23:40.456Z,8.50
2018-01-30T14:26:08.051Z,8.50
2018-01-30T14:28:35.656Z,8.50
2018-01-30T14:31:03.247Z,8.40
2018-01-30T14:33:30.829Z,8.30
2018-01-30T14:35:58.409Z,8.20
2018-01-30T14:38:26.766Z,8.00
2018-01-30T14:40:54.386Z,8.00
2018-01-30T14:43:21.980Z,8.10
2018-01-30T14:45:49.566Z,8.10
2018-01-30T14:48:17.940Z,8.20
2018-01-30T14:50:45.526Z,8.20
2018-01-30T14:53:13.144Z,8.20
2018-01-30T14:55:40.750Z,8.30
2018-01-30T14:58:09.701Z,8.30
2018-01-30T15:00:37.302Z,8.30
2018-01-30T15:03:05.643Z,8.30
2018-01-30T15:05:33.277Z,8.30
2018-01-30T15:08:00.872Z,8.30
2018-01-30T15:10:28.468Z,8.20
2018-01-30T15:12:56.062Z,8.20
2018-01-30T15:15:23.649Z,8.20
2018-01-30T15:18:03.400Z,8.10
2018-01-30T15:20:30.978Z,8.10
2018-01-30T15:22:58.574Z,8.20
2018-01-30T15:25:26.170Z,8.20
2018-01-30T15:27:53.781Z,8.10
2018-01-30T15:30:22.174Z,8.00
2018-01-30T15:32:50.556Z,8.00
2018-01-30T15:35:18.233Z,7.90
2018-01-30T15:37:45.832Z,7.90
2018-01-30T15:40:13.430Z,7.90
2018-01-30T15:42:41.124Z,7.80
2018-01-30T15:45:08.705Z,7.80
2018-01-30T15:47:36.276Z,7.80
2018-01-30T15:50:03.880Z,7.80
2018-01-30T15:52:31.479Z,7.80
2018-01-30T15:54:59.110Z,7.80
2018-01-30T15:57:26.726Z,7.70
2018-01-30T15:59:54.311Z,7.70
2018-01-30T16:02:22.677Z,7.70
2018-01-30T16:04:51.057Z,7.60
2018-01-30T16:07:18.685Z,7.60
2018-01-30T16:09:46.283Z,7.60
2018-01-30T16:12:14.684Z,7.50
2018-01-30T16:14:42.299Z,7.50
2018-01-30T16:17:09.880Z,7.50
2018-01-30T16:19:38.257Z,7.40
2018-01-30T16:22:05.876Z,7.40
2018-01-30T16:24:33.471Z,7.40
2018-01-30T16:27:01.067Z,7.30
2018-01-30T16:29:28.664Z,7.30
2018-01-30T16:31:56.255Z,7.30
2018-01-30T16:34:23.859Z,7.30
2018-01-30T16:36:51.496Z,7.20
2018-01-30T16:39:19.862Z,7.20
2018-01-30T16:41:51.132Z,7.10
2018-01-30T16:44:19.473Z,7.00
2018-01-30T16:46:47.143Z,7.00
2018-01-30T16:49:15.740Z,6.90
2018-01-30T16:51:43.330Z,6.90
2018-01-30T16:54:11.026Z,6.80
2018-01-30T16:56:38.620Z,6.80
2018-01-30T16:59:06.216Z,6.70
2018-01-30T17:01:33.905Z,6.80
2018-01-30T17:04:01.488Z,6.80
2018-01-30T17:06:32.897Z,6.70
2018-01-30T17:09:00.500Z,6.70
2018-01-30T17:11:28.101Z,6.60
2018-01-30T17:13:56.466Z,6.60
2018-01-30T17:16:26.787Z,6.60
2018-01-30T17:18:54.404Z,6.60
2018-01-30T17:21:22.002Z,6.70
2018-01-30T17:23:49.648Z,6.60
2018-01-30T17:26:20.979Z,6.70
2018-01-30T17:28:51.936Z,6.70
2018-01-30T17:31:19.592Z,6.70
2018-01-30T17:33:47.250Z,6.60
2018-01-30T17:36:14.853Z,6.60
2018-01-30T17:38:43.234Z,6.60
2018-01-30T17:41:17.519Z,6.70
2018-01-30T17:43:45.147Z,6.70
2018-01-30T17:46:12.736Z,6.70
2018-01-30T17:48:40.341Z,6.70
2018-01-30T17:51:08.707Z,6.80
2018-01-30T17:53:36.333Z,6.70
2018-01-30T17:56:03.960Z,6.70
2018-01-30T17:58:31.578Z,6.80
2018-01-30T18:00:59.215Z,6.70
2018-01-30T18:03:26.817Z,6.70
2018-01-30T18:05:54.415Z,6.70
2018-01-30T18:08:22.025Z,6.70
2018-01-30T18:10:49.673Z,6.60
2018-01-30T18:13:25.345Z,6.70
2018-01-30T18:15:52.954Z,6.70
2018-01-30T18:21:19.055Z,6.70
2018-01-30T18:23:46.700Z,6.70
2018-01-30T18:26:14.289Z,6.70
2018-01-30T18:28:42.655Z,6.70
2018-01-30T18:31:10.302Z,6.70
2018-01-30T18:33:37.914Z,6.70
2018-01-30T18:36:05.516Z,6.70
2018-01-30T18:38:33.151Z,6.70
2018-01-30T18:41:00.755Z,6.70
2018-01-30T18:43:28.336Z,6.70
2018-01-30T18:45:56.682Z,6.70
2018-01-30T18:48:24.260Z,6.70
2018-01-30T18:50:51.851Z,6.70
2018-01-30T18:53:21.263Z,6.70
2018-01-30T18:55:48.860Z,6.70
2018-01-30T18:58:16.453Z,6.70
2018-01-30T19:00:44.119Z,6.70
2018-01-30T19:03:11.740Z,6.70
2018-01-30T19:05:39.337Z,6.70
2018-01-30T19:08:06.946Z,6.60
2018-01-30T19:10:34.535Z,6.60
2018-01-30T19:13:02.136Z,6.60
2018-01-30T19:15:32.520Z,6.60
2018-01-30T19:18:02.093Z,6.60
2018-01-30T19:20:33.658Z,6.60
2018-01-30T19:25:58.269Z,6.60
2018-01-30T19:28:25.846Z,6.60
2018-01-30T19:30:53.443Z,6.60
2018-01-30T19:33:35.692Z,6.60
2018-01-30T19:36:14.796Z,6.60
2018-01-30T19:38:46.748Z,6.60
2018-01-30T19:41:17.112Z,6.60
2018-01-30T19:43:44.837Z,6.60
2018-01-30T19:46:24.927Z,6.60
2018-01-30T19:48:52.522Z,6.60
2018-01-30T19:51:20.160Z,6.60
2018-01-30T19:53:47.750Z,6.60
2018-01-30T19:56:15.356Z,6.60
2018-01-30T19:58:43.755Z,6.60
2018-01-30T20:01:15.579Z,6.60
2018-01-30T20:03:43.226Z,6.60
2018-01-30T20:06:10.827Z,6.70
2018-01-30T20:08:38.434Z,6.60
2018-01-30T20:11:06.032Z,6.70
2018-01-30T20:13:34.395Z,6.60
2018-01-30T20:16:02.056Z,6.60
2018-01-30T20:18:29.705Z,6.70
2018-01-30T20:21:00.665Z,6.70
2018-01-30T20:23:28.272Z,6.70
2018-01-30T20:25:56.127Z,6.70
2018-01-30T20:28:23.748Z,6.70
2018-01-30T20:31:03.882Z,6.60
2018-01-30T20:33:31.456Z,6.60
2018-01-30T20:36:09.942Z,6.50
2018-01-30T20:38:38.353Z,6.20
2018-01-30T20:41:05.952Z,6.20
2018-01-30T20:43:33.550Z,6.10
2018-01-30T20:46:01.131Z,6.00
2018-01-30T20:48:28.775Z,5.90
2018-01-30T20:50:56.370Z,5.90
2018-01-30T20:53:24.411Z,5.80
2018-01-30T20:55:52.187Z,5.80
2018-01-30T20:58:19.779Z,5.70
2018-01-30T21:00:48.158Z,5.50
2018-01-30T21:03:16.513Z,5.50
2018-01-30T21:05:44.132Z,5.50
2018-01-30T21:08:11.726Z,5.40
2018-01-30T21:11:02.425Z,5.40
2018-01-30T21:13:30.047Z,5.40
2018-01-30T21:15:57.684Z,5.30
2018-01-30T21:18:25.299Z,5.30
2018-01-30T21:20:52.903Z,5.30
2018-01-30T21:23:20.480Z,5.40
2018-01-30T21:25:48.843Z,5.40
2018-01-30T21:28:16.444Z,5.40
2018-01-30T21:30:44.044Z,5.40
2018-01-30T21:33:11.689Z,5.30
2018-01-30T21:35:39.255Z,5.30
2018-01-30T21:38:06.850Z,5.20
2018-01-30T21:40:34.464Z,5.10
2018-01-30T21:43:02.052Z,5.10
2018-01-30T21:45:29.647Z,5.20
2018-01-30T21:47:58.006Z,5.30
2018-01-30T21:50:39.224Z,5.30
2018-01-30T21:53:06.854Z,5.40
2018-01-30T21:55:35.212Z,5.50
2018-01-30T21:58:02.826Z,5.50
2018-01-30T22:00:30.432Z,5.60
2018-01-30T22:02:58.024Z,5.70
2018-01-30T22:05:26.406Z,5.70
2018-01-30T22:07:54.774Z,5.90
2018-01-30T22:10:22.356Z,5.90
2018-01-30T22:12:50.738Z,5.90
2018-01-30T22:15:19.106Z,5.90
2018-01-30T22:17:47.515Z,5.90
2018-01-30T22:20:15.128Z,5.90
2018-01-30T22:22:42.732Z,5.90
2018-01-30T22:25:10.332Z,5.90
2018-01-30T22:27:37.941Z,5.90
2018-01-30T22:30:06.337Z,6.00
2018-01-30T22:32:33.965Z,6.00
2018-01-30T22:35:02.330Z,6.10
2018-01-30T22:37:29.922Z,6.00
2018-01-30T22:39:58.266Z,6.20
2018-01-30T22:42:25.869Z,6.20
2018-01-30T22:44:53.432Z,6.30
